Time;durP1;ratioP1;P1;durP2;ratioP2;P2;SDS_P1;SDS_P2;PMS_P1;PMS_P2;Temp;Humidity;BMP_temperature;BMP_pressure;BME280_temperature;BME280_humidity;BME280_pressure;Samples;Min_cycle;Max_cycle;Signal;HPM_P1;HPM_P2
2021/11/16 00:01:55;;;;;;;30.67;20.40;;;8.60;92.00;;;;;;5098549;28;20411;-46
2021/11/16 00:04:21;;;;;;;28.90;20.37;;;8.50;92.10;;;;;;5098029;28;20514;-46
2021/11/16 00:06:52;;;;;;;25.10;19.70;;;8.50;92.10;;;;;;5098570;28;20434;-47
2021/11/16 00:09:19;;;;;;;27.93;18.37;;;8.50;92.20;;;;;;5098271;28;20474;-47
2021/11/16 00:11:45;;;;;;;25.03;18.30;;;8.50;92.20;;;;;;5098657;28;20472;-46
2021/11/16 00:14:11;;;;;;;24.03;18.50;;;8.60;92.20;;;;;;5097987;28;20482;-46
2021/11/16 00:16:38;;;;;;;28.00;19.10;;;8.50;92.20;;;;;;5097826;28;20417;-47
2021/11/16 00:19:07;;;;;;;24.63;18.80;;;8.60;92.20;;;;;;5097914;28;20705;-46
2021/11/16 00:21:32;;;;;;;27.47;18.67;;;8.60;92.20;;;;;;5097984;28;20459;-46
2021/11/16 00:24:02;;;;;;;25.47;18.53;;;8.60;92.20;;;;;;5097623;28;20415;-46
2021/11/16 00:26:28;;;;;;;26.17;20.40;;;8.60;92.10;;;;;;5096499;28;20173;-46
2021/11/16 00:28:54;;;;;;;25.80;18.73;;;8.60;92.10;;;;;;5095979;28;20478;-46
2021/11/16 00:31:21;;;;;;;21.87;17.20;;;8.60;92.10;;;;;;5096939;28;20457;-46
2021/11/16 00:33:48;;;;;;;21.57;17.23;;;8.60;92.10;;;;;;5096954;28;20411;-46
2021/11/16 00:36:14;;;;;;;25.83;19.03;;;8.60;92.10;;;;;;5097490;28;20180;-46
2021/11/16 00:38:41;;;;;;;24.90;19.07;;;8.60;92.10;;;;;;5097776;28;20421;-46
2021/11/16 00:41:07;;;;;;;24.70;17.90;;;8.60;92.10;;;;;;5096991;28;20418;-46
2021/11/16 00:43:33;;;;;;;25.10;18.40;;;8.60;92.40;;;;;;5096761;28;20438;-46
2021/11/16 00:45:59;;;;;;;22.83;16.40;;;8.60;92.10;;;;;;5096564;28;20418;-46
2021/11/16 00:48:25;;;;;;;21.93;16.77;;;8.60;92.00;;;;;;5097302;28;20467;-46
2021/11/16 00:50:58;;;;;;;25.00;17.83;;;8.60;92.00;;;;;;5096961;28;20439;-46
2021/11/16 00:53:28;;;;;;;25.53;18.93;;;8.60;92.00;;;;;;5097692;28;20419;-47
2021/11/16 00:55:54;;;;;;;24.03;17.93;;;8.60;92.00;;;;;;5097798;28;20410;-46
2021/11/16 00:58:20;;;;;;;22.70;18.67;;;8.60;92.00;;;;;;5097793;28;20422;-46
2021/11/16 01:00:46;;;;;;;25.10;19.03;;;8.60;92.00;;;;;;5096438;28;20270;-46
2021/11/16 01:03:12;;;;;;;23.73;18.23;;;8.60;92.10;;;;;;5096699;28;20432;-46
2021/11/16 01:05:39;;;;;;;23.67;17.53;;;8.60;92.10;;;;;;5096735;28;20221;-46
2021/11/16 01:08:05;;;;;;;25.17;17.73;;;8.60;92.10;;;;;;5096804;28;20415;-46
2021/11/16 01:10:31;;;;;;;26.27;17.30;;;8.50;92.10;;;;;;5096568;28;20531;-46
2021/11/16 01:12:57;;;;;;;24.30;19.17;;;8.50;92.00;;;;;;5096548;28;20851;-46
2021/11/16 01:15:23;;;;;;;23.90;18.10;;;8.50;92.00;;;;;;5096288;28;20179;-46
2021/11/16 01:17:50;;;;;;;23.77;18.27;;;8.50;92.00;;;;;;5096284;28;20177;-46
2021/11/16 01:20:16;;;;;;;22.40;17.40;;;8.50;92.00;;;;;;5095957;28;20438;-46
2021/11/16 01:22:43;;;;;;;23.00;15.90;;;8.50;92.00;;;;;;5097403;28;20445;-46
2021/11/16 01:25:10;;;;;;;23.70;18.03;;;8.50;92.30;;;;;;5097280;28;20433;-46
2021/11/16 01:27:36;;;;;;;23.33;17.60;;;8.50;92.00;;;;;;5095939;28;20734;-46
2021/11/16 01:30:08;;;;;;;21.57;16.03;;;8.50;92.10;;;;;;5096048;28;20489;-46
2021/11/16 01:32:40;;;;;;;22.93;17.10;;;8.50;92.10;;;;;;5098925;28;20557;-46
2021/11/16 01:35:07;;;;;;;25.20;19.43;;;8.50;92.10;;;;;;5100889;28;20494;-46
2021/11/16 01:37:33;;;;;;;22.20;17.10;;;8.50;92.10;;;;;;5100652;28;20518;-46
2021/11/16 01:39:58;;;;;;;23.03;17.77;;;8.50;92.10;;;;;;5100973;28;20863;-46
2021/11/16 01:42:24;;;;;;;19.37;15.30;;;8.50;92.10;;;;;;5101098;28;20840;-46
2021/11/16 01:44:51;;;;;;;25.30;18.47;;;8.50;92.10;;;;;;5100477;28;20183;-46
2021/11/16 01:47:17;;;;;;;24.53;17.10;;;8.50;92.10;;;;;;5101001;28;20184;-46
2021/11/16 01:49:45;;;;;;;20.93;16.83;;;8.50;92.10;;;;;;5100572;28;20466;-46
2021/11/16 01:52:11;;;;;;;26.20;17.63;;;8.50;92.10;;;;;;5101079;28;20418;-46
2021/11/16 01:54:37;;;;;;;21.03;15.87;;;8.50;92.40;;;;;;5100205;28;20829;-46
2021/11/16 01:57:03;;;;;;;20.00;15.63;;;8.50;92.10;;;;;;5100557;28;20202;-46
2021/11/16 01:59:30;;;;;;;22.53;17.47;;;8.50;92.10;;;;;;5100558;28;20426;-46
2021/11/16 02:01:55;;;;;;;21.07;16.87;;;8.50;92.10;;;;;;5100596;28;20449;-46
2021/11/16 02:04:22;;;;;;;24.30;17.50;;;8.50;92.10;;;;;;5100075;28;20447;-46
2021/11/16 02:06:48;;;;;;;21.40;16.40;;;8.50;92.10;;;;;;5099969;28;20246;-46
2021/11/16 02:09:16;;;;;;;20.93;16.30;;;8.50;92.10;;;;;;5091540;28;20471;-46
2021/11/16 02:11:42;;;;;;;22.50;17.53;;;8.50;92.10;;;;;;5080169;28;20419;-46
2021/11/16 02:14:11;;;;;;;20.40;16.60;;;8.50;92.10;;;;;;5080119;28;20863;-46
2021/11/16 02:16:37;;;;;;;22.20;17.60;;;8.50;92.10;;;;;;5080018;28;20764;-46
2021/11/16 02:19:04;;;;;;;23.20;17.73;;;8.50;92.10;;;;;;5079856;28;20452;-46
2021/11/16 02:21:30;;;;;;;26.30;19.63;;;8.40;92.00;;;;;;5079971;28;20872;-46
2021/11/16 02:23:56;;;;;;;24.40;18.10;;;8.40;92.10;;;;;;5079456;28;20524;-46
2021/11/16 02:26:22;;;;;;;23.70;18.30;;;8.40;92.10;;;;;;5080154;28;20411;-46
2021/11/16 02:28:49;;;;;;;22.53;18.00;;;8.40;92.10;;;;;;5079607;28;20474;-46
2021/11/16 02:31:15;;;;;;;23.37;19.03;;;8.40;92.20;;;;;;5079680;28;20518;-46
2021/11/16 02:33:42;;;;;;;24.13;18.13;;;8.40;92.20;;;;;;5079902;28;20422;-46
2021/11/16 02:36:08;;;;;;;23.33;17.30;;;8.40;92.20;;;;;;5079720;28;20881;-46
2021/11/16 02:38:35;;;;;;;24.30;17.60;;;8.30;92.10;;;;;;5094272;28;20529;-46
2021/11/16 02:41:02;;;;;;;22.73;18.30;;;8.30;92.20;;;;;;5098762;28;20468;-46
2021/11/16 02:43:29;;;;;;;23.10;17.50;;;8.30;92.20;;;;;;5099386;28;20411;-46
2021/11/16 02:45:55;;;;;;;21.70;17.20;;;8.30;92.20;;;;;;5099769;28;20433;-46
2021/11/16 02:48:21;;;;;;;23.27;18.67;;;8.30;92.30;;;;;;5099774;28;20466;-46
2021/11/16 02:50:50;;;;;;;23.20;18.10;;;8.30;92.20;;;;;;5099343;28;20423;-47
2021/11/16 02:53:17;;;;;;;27.80;19.70;;;8.20;92.20;;;;;;5099946;28;20266;-46
2021/11/16 02:55:43;;;;;;;24.30;18.60;;;8.20;92.20;;;;;;5099592;28;20517;-44
2021/11/16 02:58:09;;;;;;;23.33;19.00;;;8.20;92.20;;;;;;5099385;28;20411;-44
2021/11/16 03:00:36;;;;;;;25.40;18.60;;;8.20;92.30;;;;;;5099129;28;20430;-44
2021/11/16 03:03:02;;;;;;;22.80;18.57;;;8.20;92.30;;;;;;5099406;28;20462;-44
2021/11/16 03:05:34;;;;;;;24.13;18.53;;;8.20;92.30;;;;;;5098930;28;20423;-44
2021/11/16 03:08:01;;;;;;;23.20;17.20;;;8.20;92.30;;;;;;5098978;28;20205;-44
2021/11/16 03:10:31;;;;;;;24.27;17.20;;;8.20;92.30;;;;;;5098956;28;20422;-44
2021/11/16 03:12:58;;;;;;;25.23;18.23;;;8.10;92.30;;;;;;5099024;28;20415;-44
2021/11/16 03:15:24;;;;;;;20.37;16.40;;;8.10;92.30;;;;;;5098551;28;20422;-44
2021/11/16 03:17:51;;;;;;;24.87;18.53;;;8.10;92.30;;;;;;5097737;28;20403;-44
2021/11/16 03:20:17;;;;;;;26.30;18.93;;;8.10;92.30;;;;;;5097533;28;20808;-44
2021/11/16 03:22:57;;;;;;;22.53;17.33;;;8.10;92.30;;;;;;5097893;28;20505;-44
2021/11/16 03:25:27;;;;;;;24.10;17.93;;;8.10;92.30;;;;;;5097558;28;20496;-45
2021/11/16 03:28:04;;;;;;;24.37;18.53;;;8.10;92.30;;;;;;5097236;28;20473;-46
2021/11/16 03:30:30;;;;;;;22.90;16.53;;;8.10;92.30;;;;;;5099241;28;20430;-45
2021/11/16 03:32:56;;;;;;;22.77;18.77;;;8.10;92.30;;;;;;5099005;28;20399;-45
2021/11/16 03:35:23;;;;;;;23.13;18.70;;;8.10;92.30;;;;;;5098010;28;20442;-45
2021/11/16 03:37:52;;;;;;;24.53;18.00;;;8.10;92.30;;;;;;5098336;28;20928;-45
2021/11/16 03:40:21;;;;;;;25.00;18.80;;;8.10;92.30;;;;;;5098428;28;20425;-45
2021/11/16 03:42:48;;;;;;;25.57;20.77;;;8.10;92.30;;;;;;5098604;28;20442;-45
2021/11/16 03:45:16;;;;;;;25.43;18.17;;;8.10;92.40;;;;;;5098357;28;20423;-45
2021/11/16 03:47:42;;;;;;;25.87;19.10;;;8.10;92.40;;;;;;5097209;28;20823;-45
2021/11/16 03:50:11;;;;;;;27.00;18.97;;;8.10;92.40;;;;;;5097974;28;20864;-45
2021/11/16 03:52:41;;;;;;;23.77;17.37;;;8.10;92.40;;;;;;5098188;28;20415;-45
2021/11/16 03:55:07;;;;;;;23.33;17.77;;;8.10;92.40;;;;;;5097613;28;20472;-45
2021/11/16 03:57:32;;;;;;;25.00;18.10;;;8.10;92.40;;;;;;5096086;28;20706;-45
2021/11/16 03:59:59;;;;;;;22.60;17.13;;;8.10;92.40;;;;;;5097939;28;20411;-45
2021/11/16 04:02:25;;;;;;;23.90;18.47;;;8.10;92.40;;;;;;5097831;28;20188;-45
2021/11/16 04:04:54;;;;;;;24.70;18.80;;;8.10;92.30;;;;;;5096937;28;20407;-45
2021/11/16 04:07:21;;;;;;;25.03;18.80;;;8.10;92.30;;;;;;5096817;28;20207;-45
2021/11/16 04:09:46;;;;;;;24.07;17.50;;;8.10;92.30;;;;;;5096823;28;20458;-45
2021/11/16 04:12:12;;;;;;;26.47;18.33;;;8.10;92.40;;;;;;5096926;28;20434;-45
2021/11/16 04:14:38;;;;;;;22.27;17.73;;;8.10;92.40;;;;;;5096400;28;20180;-45
2021/11/16 04:17:04;;;;;;;24.63;19.10;;;8.10;92.40;;;;;;5096115;28;20456;-45
2021/11/16 04:19:30;;;;;;;22.93;17.50;;;8.00;92.30;;;;;;5095952;28;20181;-45
2021/11/16 04:21:57;;;;;;;25.80;19.47;;;8.00;92.30;;;;;;5095098;28;20426;-45
2021/11/16 04:24:22;;;;;;;20.57;17.10;;;8.00;92.30;;;;;;5096360;28;20264;-45
2021/11/16 04:26:48;;;;;;;23.63;19.10;;;8.00;92.30;;;;;;5096330;28;20919;-45
2021/11/16 04:29:14;;;;;;;23.40;16.83;;;8.00;92.40;;;;;;5094810;28;20234;-45
2021/11/16 04:31:40;;;;;;;26.10;18.30;;;8.00;92.40;;;;;;5095874;28;20521;-45
2021/11/16 04:34:08;;;;;;;24.47;19.27;;;8.00;92.40;;;;;;5079175;28;20496;-45
2021/11/16 04:36:37;;;;;;;22.37;17.20;;;8.00;92.40;;;;;;5097691;28;20275;-45
2021/11/16 04:39:07;;;;;;;26.77;19.00;;;8.00;92.40;;;;;;5097608;28;20429;-45
2021/11/16 04:41:34;;;;;;;23.17;17.30;;;8.00;92.40;;;;;;5096715;28;20538;-45
2021/11/16 04:44:01;;;;;;;24.10;17.17;;;8.00;92.40;;;;;;5096024;28;20504;-45
2021/11/16 04:46:27;;;;;;;26.77;19.80;;;8.00;92.40;;;;;;5094756;28;20494;-45
2021/11/16 05:04:50;;;;;;;24.77;19.40;;;7.80;92.50;;;;;;5094795;28;20422;-48
2021/11/16 05:07:17;;;;;;;26.17;19.40;;;7.80;92.50;;;;;;5098915;28;20441;-48
2021/11/16 05:09:52;;;;;;;26.53;19.27;;;7.80;92.60;;;;;;5099150;28;20886;-48
2021/11/16 05:12:19;;;;;;;28.40;18.93;;;7.80;92.50;;;;;;5100363;28;20418;-48
2021/11/16 05:14:44;;;;;;;27.70;19.47;;;7.80;92.50;;;;;;5099054;28;20447;-48
2021/11/16 05:17:11;;;;;;;22.30;17.33;;;7.80;92.50;;;;;;5097939;28;20485;-48
2021/11/16 05:19:36;;;;;;;24.73;18.37;;;7.80;92.50;;;;;;5098334;28;20180;-48
2021/11/16 05:22:03;;;;;;;25.47;19.87;;;7.80;92.50;;;;;;5098249;28;20422;-48
2021/11/16 05:24:28;;;;;;;26.40;19.20;;;7.80;92.50;;;;;;5097958;28;20215;-48
2021/11/16 05:26:55;;;;;;;27.17;20.50;;;7.80;92.50;;;;;;5097524;28;20458;-48
2021/11/16 05:29:20;;;;;;;26.10;19.30;;;7.80;92.50;;;;;;5098305;28;20521;-48
2021/11/16 05:31:46;;;;;;;28.10;19.00;;;7.80;92.80;;;;;;5098624;28;20433;-48
2021/11/16 05:34:12;;;;;;;24.07;18.63;;;7.80;92.50;;;;;;5099462;28;20524;-48
2021/11/16 05:36:38;;;;;;;19.90;15.73;;;7.80;92.50;;;;;;5100380;28;20439;-48
2021/11/16 05:39:04;;;;;;;22.57;16.53;;;7.80;92.40;;;;;;5098951;28;20189;-48
2021/11/16 05:41:30;;;;;;;22.13;16.60;;;7.80;92.40;;;;;;5098854;28;20219;-48
2021/11/16 05:43:57;;;;;;;22.07;18.47;;;7.80;92.40;;;;;;5098538;28;20415;-44
2021/11/16 05:46:23;;;;;;;22.43;16.63;;;7.80;92.40;;;;;;5098543;28;20540;-42
2021/11/16 05:48:50;;;;;;;19.80;16.13;;;7.80;92.30;;;;;;5099144;28;20471;-40
2021/11/16 05:51:17;;;;;;;21.60;15.70;;;7.70;92.30;;;;;;5099127;28;20480;-44
2021/11/16 05:53:45;;;;;;;22.00;17.87;;;7.70;92.30;;;;;;5099065;28;20427;-42
2021/11/16 05:56:11;;;;;;;20.20;15.60;;;7.70;92.30;;;;;;5096575;28;20429;-44
2021/11/16 05:58:41;;;;;;;22.47;16.63;;;7.70;92.30;;;;;;5099173;28;20422;-42
2021/11/16 06:01:07;;;;;;;19.40;16.80;;;7.70;92.30;;;;;;5098736;28;20521;-43
2021/11/16 06:03:33;;;;;;;20.40;16.30;;;7.70;92.20;;;;;;5098433;28;20489;-43
2021/11/16 06:05:59;;;;;;;20.07;16.10;;;7.60;92.20;;;;;;5099244;28;20435;-42
2021/11/16 06:08:27;;;;;;;18.63;15.33;;;7.60;92.30;;;;;;5097386;28;20544;-42
2021/11/16 06:10:54;;;;;;;19.00;15.33;;;7.60;92.30;;;;;;5096724;28;20177;-43
2021/11/16 06:13:20;;;;;;;20.47;15.37;;;7.60;92.40;;;;;;5096232;28;20430;-43
2021/11/16 06:15:46;;;;;;;21.07;16.70;;;7.60;92.40;;;;;;5097382;28;20542;-43
2021/11/16 06:18:13;;;;;;;21.07;16.27;;;7.60;92.40;;;;;;5095903;28;21077;-43
2021/11/16 06:20:41;;;;;;;20.13;15.43;;;7.60;92.30;;;;;;5096420;28;20213;-42
2021/11/16 06:23:09;;;;;;;20.63;16.07;;;7.60;92.30;;;;;;5094985;28;20434;-44
2021/11/16 06:25:35;;;;;;;21.00;15.73;;;7.60;92.30;;;;;;5094058;28;20430;-42
2021/11/16 06:28:02;;;;;;;19.63;15.50;;;7.60;92.30;;;;;;5093613;28;20462;-42
2021/11/16 06:30:30;;;;;;;22.60;17.20;;;7.60;92.30;;;;;;5094968;28;20509;-43
2021/11/16 06:32:56;;;;;;;21.07;16.57;;;7.50;92.30;;;;;;5095412;28;20995;-43
2021/11/16 06:35:22;;;;;;;19.83;15.63;;;7.50;92.40;;;;;;5096256;28;20413;-43
2021/11/16 06:37:49;;;;;;;21.23;16.77;;;7.50;92.50;;;;;;5094769;28;20204;-43
2021/11/16 06:40:16;;;;;;;21.83;16.10;;;7.50;92.50;;;;;;5095197;28;20180;-43
2021/11/16 06:42:42;;;;;;;21.00;15.57;;;7.60;92.60;;;;;;5095019;28;20426;-43
2021/11/16 06:45:08;;;;;;;17.00;13.93;;;7.60;92.50;;;;;;5094269;28;20443;-44
2021/11/16 06:47:34;;;;;;;21.50;16.10;;;7.60;92.50;;;;;;5094459;28;20480;-43
2021/11/16 06:50:00;;;;;;;20.60;16.00;;;7.60;92.50;;;;;;5095342;28;20467;-43
2021/11/16 06:52:29;;;;;;;22.23;16.13;;;7.60;92.40;;;;;;5094525;28;20419;-43
2021/11/16 06:54:55;;;;;;;22.50;16.43;;;7.60;92.40;;;;;;5094663;28;20594;-42
2021/11/16 06:57:25;;;;;;;21.27;14.90;;;7.60;92.40;;;;;;5093932;28;20419;-42
2021/11/16 06:59:51;;;;;;;23.50;17.50;;;7.60;92.40;;;;;;5094687;28;20177;-43
2021/11/16 07:02:24;;;;;;;20.67;15.93;;;7.60;92.40;;;;;;5094555;28;20426;-43
2021/11/16 07:04:50;;;;;;;22.80;16.30;;;7.70;92.40;;;;;;5096337;28;20200;-43
2021/11/16 07:07:16;;;;;;;23.73;18.50;;;7.70;92.40;;;;;;5096314;28;20469;-43
2021/11/16 07:09:43;;;;;;;23.10;16.67;;;7.70;92.40;;;;;;5095373;28;20532;-44
2021/11/16 07:12:24;;;;;;;22.47;16.37;;;7.70;92.40;;;;;;5096214;28;20169;-43
2021/11/16 07:14:49;;;;;;;19.70;15.40;;;7.70;92.40;;;;;;5096946;28;20429;-43
2021/11/16 07:17:17;;;;;;;24.70;17.20;;;7.70;92.40;;;;;;5095860;28;20844;-44
2021/11/16 07:19:44;;;;;;;23.63;17.87;;;7.80;92.40;;;;;;5095179;28;20438;-43
2021/11/16 07:22:18;;;;;;;26.37;17.13;;;7.80;92.70;;;;;;5095545;28;20427;-43
2021/11/16 07:25:08;;;;;;;25.70;18.60;;;7.80;92.40;;;;;;5094396;28;20579;-45
2021/11/16 07:27:49;;;;;;;28.30;18.97;;;7.80;92.40;;;;;;5094887;28;20469;-44
2021/11/16 07:30:23;;;;;;;24.00;17.10;;;7.80;92.40;;;;;;5056872;28;21206;-44
2021/11/16 07:32:54;;;;;;;23.37;17.87;;;7.80;92.40;;;;;;5075564;28;20400;-43
2021/11/16 07:35:25;;;;;;;24.40;16.33;;;7.80;92.30;;;;;;5076249;28;20434;-44
2021/11/16 07:37:56;;;;;;;24.50;19.13;;;7.80;92.30;;;;;;5075313;28;20442;-45
2021/11/16 07:40:23;;;;;;;25.37;18.10;;;7.80;92.40;;;;;;5075589;28;20522;-43
2021/11/16 07:42:51;;;;;;;21.60;17.00;;;7.80;92.40;;;;;;5086023;28;20427;-43
2021/11/16 07:45:18;;;;;;;27.90;18.97;;;7.90;92.40;;;;;;5096080;28;20843;-44
2021/11/16 07:47:54;;;;;;;25.83;17.97;;;7.90;92.40;;;;;;5096326;28;20411;-43
2021/11/16 07:50:28;;;;;;;26.10;17.77;;;7.90;92.30;;;;;;5096499;28;20466;-43
2021/11/16 07:52:55;;;;;;;28.53;18.70;;;7.90;92.30;;;;;;5096184;28;20421;-45
2021/11/16 07:55:26;;;;;;;24.87;18.23;;;7.90;92.30;;;;;;5096964;28;20415;-44
2021/11/16 07:57:53;;;;;;;23.97;16.83;;;7.90;92.40;;;;;;5129903;27;20426;-43
2021/11/16 08:00:24;;;;;;;24.37;17.57;;;7.90;92.40;;;;;;5094511;28;20492;-43
2021/11/16 08:02:57;;;;;;;24.90;17.17;;;7.90;92.40;;;;;;5095200;28;20414;-43
2021/11/16 08:05:33;;;;;;;19.27;14.03;;;7.90;92.30;;;;;;5095318;28;20426;-44
2021/11/16 08:09:04;;;;;;;20.33;13.77;;;7.90;92.30;;;;;;5095762;28;20423;-44
2021/11/16 08:11:13;;;;;;;19.60;14.07;;;8.00;92.20;;;;;;5088325;28;20435;-44
2021/11/16 08:14:04;;;;;;;20.37;14.43;;;8.00;92.20;;;;;;5095231;28;20417;-43
2021/11/16 08:16:30;;;;;;;19.20;13.20;;;8.00;92.10;;;;;;5095845;28;20409;-43
2021/11/16 08:19:07;;;;;;;20.00;13.87;;;8.00;92.20;;;;;;5095108;28;20407;-43
2021/11/16 08:21:38;;;;;;;20.20;13.50;;;8.00;92.20;;;;;;5095660;28;20308;-45
2021/11/16 08:24:10;;;;;;;18.00;12.93;;;8.00;92.10;;;;;;5095550;28;20411;-43
2021/11/16 08:26:39;;;;;;;17.37;12.70;;;8.10;92.20;;;;;;5095995;28;20412;-43
2021/11/16 08:29:06;;;;;;;15.37;12.00;;;8.10;92.10;;;;;;5094246;28;20912;-44
2021/11/16 08:31:37;;;;;;;16.60;12.40;;;8.10;92.00;;;;;;5095296;28;20430;-43
2021/11/16 08:34:09;;;;;;;17.17;12.17;;;8.20;92.00;;;;;;5093941;28;20410;-43
2021/11/16 08:36:55;;;;;;;14.93;11.70;;;8.20;91.90;;;;;;5095001;28;20437;-45
2021/11/16 08:39:31;;;;;;;16.83;11.73;;;8.30;91.80;;;;;;5094845;28;20835;-43
2021/11/16 08:41:57;;;;;;;15.87;11.30;;;8.30;91.70;;;;;;5095371;28;20570;-43
2021/11/16 08:44:30;;;;;;;15.80;11.30;;;8.30;91.60;;;;;;5095021;28;20940;-43
2021/11/16 08:46:56;;;;;;;14.37;11.40;;;8.30;91.40;;;;;;5095289;28;20499;-44
2021/11/16 08:49:25;;;;;;;15.17;10.50;;;8.30;91.30;;;;;;5095618;28;20653;-43
2021/11/16 08:51:51;;;;;;;14.53;9.73;;;8.30;91.20;;;;;;5096379;28;20187;-42
2021/11/16 08:54:29;;;;;;;11.70;9.30;;;8.30;91.10;;;;;;5095364;28;20420;-43
2021/11/16 08:56:54;;;;;;;14.23;10.00;;;8.40;91.20;;;;;;5096433;28;20407;-42
2021/11/16 08:59:20;;;;;;;11.23;8.40;;;8.40;91.10;;;;;;5095771;28;20852;-42
2021/11/16 09:02:02;;;;;;;14.27;9.73;;;8.40;91.10;;;;;;5095448;28;20426;-44
2021/11/16 09:04:33;;;;;;;11.63;8.47;;;8.40;91.00;;;;;;5094099;28;20860;-43
2021/11/16 09:07:00;;;;;;;12.70;8.90;;;8.40;91.00;;;;;;5093763;28;20421;-43
2021/11/16 09:09:27;;;;;;;13.20;9.77;;;8.40;91.00;;;;;;5092978;28;20477;-43
2021/11/16 09:12:00;;;;;;;13.17;8.60;;;8.40;90.90;;;;;;5095255;28;20424;-43
2021/11/16 09:14:27;;;;;;;10.80;8.50;;;8.40;90.90;;;;;;5111050;28;20438;-44
2021/11/16 09:16:53;;;;;;;10.07;7.73;;;8.40;90.80;;;;;;5094524;28;20415;-43
2021/11/16 09:19:29;;;;;;;12.03;8.87;;;8.40;90.80;;;;;;5095585;28;20872;-43
2021/11/16 09:21:55;;;;;;;12.23;7.63;;;8.40;90.60;;;;;;5093530;28;20839;-44
2021/11/16 09:24:30;;;;;;;12.87;8.60;;;8.50;90.60;;;;;;5092915;28;20433;-42
2021/11/16 09:27:11;;;;;;;10.80;7.77;;;8.50;90.60;;;;;;5092821;28;20711;-44
2021/11/16 09:29:39;;;;;;;11.97;8.63;;;8.50;90.60;;;;;;5094172;28;20474;-45
2021/11/16 09:32:14;;;;;;;9.87;8.00;;;8.50;90.60;;;;;;5095062;28;20468;-46
2021/11/16 09:34:42;;;;;;;12.63;8.50;;;8.50;90.50;;;;;;5094209;28;20410;-43
2021/11/16 09:37:21;;;;;;;10.30;7.87;;;8.50;90.60;;;;;;5094485;28;20429;-44
2021/11/16 09:39:53;;;;;;;12.70;9.13;;;8.50;90.50;;;;;;5093921;28;20508;-43
2021/11/16 09:42:30;;;;;;;10.17;7.10;;;8.50;90.50;;;;;;5095910;28;20430;-43
2021/11/16 09:45:05;;;;;;;11.90;7.87;;;8.60;90.50;;;;;;5095242;28;20756;-43
2021/11/16 09:47:34;;;;;;;11.80;8.10;;;8.60;90.50;;;;;;5093917;28;20458;-43
2021/11/16 09:50:03;;;;;;;10.57;7.77;;;8.60;90.50;;;;;;5095300;28;20474;-43
2021/11/16 09:52:30;;;;;;;10.70;7.30;;;8.60;90.40;;;;;;5097101;28;20773;-43
2021/11/16 09:55:09;;;;;;;10.07;8.20;;;8.60;90.30;;;;;;5099137;28;20522;-43
2021/11/16 09:57:40;;;;;;;8.03;6.60;;;8.60;90.30;;;;;;5098219;28;21124;-45
2021/11/16 10:00:25;;;;;;;11.20;8.30;;;8.70;90.30;;;;;;5097910;28;20411;-43
2021/11/16 10:03:00;;;;;;;10.53;7.57;;;8.70;90.30;;;;;;5098754;28;20424;-43
2021/11/16 10:05:27;;;;;;;10.30;7.27;;;8.70;90.20;;;;;;5097822;28;20458;-43
2021/11/16 10:08:01;;;;;;;11.30;8.13;;;8.70;90.20;;;;;;5097423;28;20425;-43
2021/11/16 10:10:32;;;;;;;9.80;7.60;;;8.70;90.20;;;;;;5098291;28;20828;-42
2021/11/16 10:13:07;;;;;;;10.27;7.13;;;8.80;90.20;;;;;;5099034;28;20505;-44
2021/11/16 10:15:33;;;;;;;10.30;8.50;;;8.80;90.10;;;;;;5098690;28;20445;-45
2021/11/16 10:17:59;;;;;;;10.80;7.27;;;8.80;90.10;;;;;;5098106;28;20433;-42
2021/11/16 10:20:30;;;;;;;10.07;7.10;;;8.80;90.10;;;;;;5097072;28;20537;-44
2021/11/16 10:22:58;;;;;;;9.73;7.00;;;8.90;90.00;;;;;;5096880;28;20423;-44
2021/11/16 10:25:27;;;;;;;9.40;7.17;;;9.00;89.60;;;;;;5098273;28;20828;-44
2021/11/16 10:27:55;;;;;;;8.57;6.70;;;9.00;89.10;;;;;;5097924;28;20798;-43
2021/11/16 10:30:25;;;;;;;5.67;4.73;;;9.10;89.70;;;;;;5097691;28;20485;-43
2021/11/16 10:33:13;;;;;;;5.97;4.60;;;9.50;94.80;;;;;;5098021;28;20419;-43
2021/11/16 10:35:51;;;;;;;5.43;3.63;;;10.20;96.30;;;;;;5097892;28;20423;-44
2021/11/16 10:38:24;;;;;;;4.73;3.50;;;10.70;97.10;;;;;;5097110;28;20441;-42
2021/11/16 10:40:51;;;;;;;4.43;3.77;;;11.30;96.90;;;;;;5096722;28;20543;-42
2021/11/16 10:43:16;;;;;;;6.40;4.63;;;11.80;96.40;;;;;;5096411;28;20728;-45
2021/11/16 10:45:45;;;;;;;3.80;3.40;;;12.20;95.60;;;;;;5097428;28;20419;-43
2021/11/16 10:48:14;;;;;;;7.10;4.07;;;12.50;94.70;;;;;;5095836;28;20415;-44
2021/11/16 10:50:42;;;;;;;3.87;3.20;;;12.80;94.00;;;;;;5077994;28;20422;-44
2021/11/16 10:53:10;;;;;;;4.13;3.27;;;13.10;93.20;;;;;;5094025;28;20711;-43
2021/11/16 10:55:43;;;;;;;3.77;3.23;;;13.30;92.60;;;;;;5096358;28;20437;-44
2021/11/16 10:58:14;;;;;;;5.03;3.83;;;13.60;91.80;;;;;;5105443;28;20428;-45
2021/11/16 11:00:44;;;;;;;4.40;3.60;;;13.70;91.30;;;;;;5096588;28;20415;-43
2021/11/16 11:03:15;;;;;;;4.10;3.20;;;13.80;90.90;;;;;;5075690;28;20442;-44
2021/11/16 11:05:43;;;;;;;4.10;3.17;;;13.90;90.50;;;;;;5092909;28;20434;-44
2021/11/16 11:08:11;;;;;;;4.73;3.50;;;14.00;90.20;;;;;;5091615;28;20481;-45
2021/11/16 11:10:46;;;;;;;4.23;3.20;;;14.10;89.60;;;;;;5092964;28;20474;-44
2021/11/16 11:13:32;;;;;;;4.70;3.43;;;14.10;89.00;;;;;;5093772;28;20414;-44
2021/11/16 11:15:58;;;;;;;4.47;3.70;;;14.20;88.10;;;;;;5095417;28;20457;-43
2021/11/16 11:18:38;;;;;;;4.87;3.97;;;14.20;87.00;;;;;;5096203;28;21073;-45
2021/11/16 11:21:08;;;;;;;3.97;2.87;;;14.30;86.60;;;;;;5093873;28;20438;-44
2021/11/16 11:23:41;;;;;;;5.43;3.70;;;14.30;86.60;;;;;;5094571;28;20455;-44
2021/11/16 11:29:36;;;;;;;4.67;3.77;;;14.40;85.90;;;;;;5084953;28;20485;-43
2021/11/16 11:32:21;;;;;;;4.63;3.10;;;14.50;87.60;;;;;;5095598;28;20420;-41
2021/11/16 11:34:59;;;;;;;3.90;3.50;;;14.70;89.30;;;;;;5095695;28;20847;-41
2021/11/16 11:37:32;;;;;;;10.03;3.53;;;14.80;89.00;;;;;;5096689;28;20446;-42
2021/11/16 11:40:09;;;;;;;3.40;3.10;;;14.90;88.60;;;;;;5095297;28;20464;-42
2021/11/16 11:42:58;;;;;;;4.17;3.00;;;15.10;88.40;;;;;;5096865;28;20416;-43
2021/11/16 11:45:34;;;;;;;3.80;2.93;;;15.20;88.10;;;;;;5082380;28;20443;-42
2021/11/16 11:48:00;;;;;;;3.77;3.37;;;15.30;87.60;;;;;;5094689;28;20425;-43
2021/11/16 11:50:42;;;;;;;5.83;3.17;;;15.40;87.40;;;;;;5094473;28;20460;-42
2021/11/16 11:53:19;;;;;;;6.97;3.10;;;15.40;87.10;;;;;;5094189;28;20184;-43
2021/11/16 11:55:47;;;;;;;3.40;3.10;;;15.50;86.50;;;;;;5094033;28;20411;-43
2021/11/16 11:58:19;;;;;;;3.40;2.93;;;15.50;86.10;;;;;;5094581;28;20804;-42
2021/11/16 12:00:48;;;;;;;3.90;3.37;;;15.60;86.00;;;;;;5094469;28;20509;-43
2021/11/16 12:03:14;;;;;;;3.43;3.13;;;15.70;85.70;;;;;;5089524;28;20450;-44
2021/11/16 12:05:41;;;;;;;3.90;2.83;;;15.70;85.40;;;;;;5081210;28;20543;-43
2021/11/16 12:08:09;;;;;;;4.90;3.30;;;15.60;84.80;;;;;;5071973;28;20245;-44
2021/11/16 12:10:36;;;;;;;4.40;3.70;;;15.60;84.20;;;;;;5072581;28;20462;-43
2021/11/16 12:13:03;;;;;;;6.60;5.30;;;15.60;83.80;;;;;;5073802;28;20419;-44
2021/11/16 12:15:55;;;;;;;6.23;5.40;;;15.40;81.20;;;;;;5074636;28;20433;-43
2021/11/16 12:18:39;;;;;;;7.57;6.40;;;15.00;77.90;;;;;;5074570;28;20415;-44
2021/11/16 12:21:23;;;;;;;6.57;5.97;;;14.40;75.60;;;;;;5073359;28;20425;-42
2021/11/16 12:23:55;;;;;;;6.70;6.00;;;13.90;75.00;;;;;;5073787;28;20531;-45
2021/11/16 12:26:21;;;;;;;8.10;6.50;;;13.40;74.80;;;;;;5073982;28;20484;-43
2021/11/16 12:28:47;;;;;;;7.80;6.57;;;13.00;74.80;;;;;;5073492;28;20471;-45
2021/11/16 12:31:27;;;;;;;6.70;5.97;;;12.70;75.10;;;;;;5075275;28;20438;-44
2021/11/16 12:33:57;;;;;;;7.03;6.20;;;12.40;75.90;;;;;;5092502;28;20839;-43
2021/11/16 12:36:29;;;;;;;6.60;5.47;;;12.10;76.40;;;;;;5091869;28;20518;-44
2021/11/16 12:38:56;;;;;;;6.47;5.80;;;11.90;76.50;;;;;;5093939;28;20521;-44
2021/11/16 12:41:40;;;;;;;6.47;5.50;;;11.70;77.10;;;;;;5095229;28;20437;-44
2021/11/16 12:44:31;;;;;;;7.23;6.53;;;11.60;77.60;;;;;;5094129;28;20424;-45
2021/11/16 12:47:09;;;;;;;7.37;6.40;;;11.40;77.70;;;;;;5092795;28;20409;-44
2021/11/16 12:49:38;;;;;;;7.00;6.30;;;11.20;77.70;;;;;;5092508;28;20895;-43
2021/11/16 12:52:09;;;;;;;5.97;5.37;;;11.00;77.90;;;;;;5093445;28;20483;-43
2021/11/16 12:54:36;;;;;;;7.03;6.33;;;10.90;78.30;;;;;;5093796;28;20441;-43
2021/11/16 12:57:22;;;;;;;7.20;6.50;;;10.80;78.50;;;;;;5092053;28;20917;-43
2021/11/16 12:59:47;;;;;;;6.80;6.20;;;10.70;78.70;;;;;;5095155;28;20837;-43
2021/11/16 13:02:35;;;;;;;6.30;5.70;;;10.60;78.90;;;;;;5094727;28;20442;-42
2021/11/16 13:05:06;;;;;;;6.20;5.40;;;10.50;79.00;;;;;;5095513;28;20168;-44
2021/11/16 13:07:34;;;;;;;5.70;4.87;;;10.50;79.50;;;;;;5094517;28;20442;-43
2021/11/16 13:10:06;;;;;;;5.83;5.27;;;10.40;80.00;;;;;;5094859;28;20936;-42
2021/11/16 13:12:38;;;;;;;6.03;5.10;;;10.40;80.10;;;;;;5094926;28;20434;-43